sensor_id;sensor_type;location;lat;lon;timestamp;temperature;humidity
75927;DHT22;64605;48.296;16.416;2023-03-01T00:01:24;2.70;56.80
75927;DHT22;64605;48.296;16.416;2023-03-01T00:03:51;2.70;56.50
75927;DHT22;64605;48.296;16.416;2023-03-01T00:06:17;2.70;56.50
75927;DHT22;64605;48.296;16.416;2023-03-01T00:08:43;2.60;56.40
75927;DHT22;64605;48.296;16.416;2023-03-01T00:11:14;2.60;56.50
75927;DHT22;64605;48.296;16.416;2023-03-01T00:13:41;2.60;56.60
75927;DHT22;64605;48.296;16.416;2023-03-01T00:16:09;2.60;56.50
75927;DHT22;64605;48.296;16.416;2023-03-01T00:18:35;2.60;56.50
75927;DHT22;64605;48.296;16.416;2023-03-01T00:21:01;2.60;56.70
75927;DHT22;64605;48.296;16.416;2023-03-01T00:23:27;2.60;56.80
75927;DHT22;64605;48.296;16.416;2023-03-01T00:25:53;2.60;56.70
75927;DHT22;64605;48.296;16.416;2023-03-01T00:28:19;2.60;56.70
75927;DHT22;64605;48.296;16.416;2023-03-01T00:30:45;2.60;56.70
75927;DHT22;64605;48.296;16.416;2023-03-01T00:33:11;2.60;57.00
75927;DHT22;64605;48.296;16.416;2023-03-01T00:35:37;2.50;57.10
75927;DHT22;64605;48.296;16.416;2023-03-01T00:38:02;2.50;57.00
75927;DHT22;64605;48.296;16.416;2023-03-01T00:40:31;2.50;56.90
75927;DHT22;64605;48.296;16.416;2023-03-01T00:42:57;2.50;56.90
75927;DHT22;64605;48.296;16.416;2023-03-01T00:45:23;2.50;57.20
75927;DHT22;64605;48.296;16.416;2023-03-01T00:47:50;2.50;57.20
75927;DHT22;64605;48.296;16.416;2023-03-01T00:50:16;2.50;57.30
75927;DHT22;64605;48.296;16.416;2023-03-01T00:52:41;2.50;57.30
75927;DHT22;64605;48.296;16.416;2023-03-01T00:55:07;2.50;57.20
75927;DHT22;64605;48.296;16.416;2023-03-01T00:57:33;2.50;57.10
75927;DHT22;64605;48.296;16.416;2023-03-01T00:59:59;2.50;57.40
75927;DHT22;64605;48.296;16.416;2023-03-01T01:02:24;2.50;57.70
75927;DHT22;64605;48.296;16.416;2023-03-01T01:04:50;2.50;57.80
75927;DHT22;64605;48.296;16.416;2023-03-01T01:07:16;2.40;57.60
75927;DHT22;64605;48.296;16.416;2023-03-01T01:09:42;2.40;57.40
75927;DHT22;64605;48.296;16.416;2023-03-01T01:12:08;2.40;57.40
75927;DHT22;64605;48.296;16.416;2023-03-01T01:14:34;2.40;57.60
75927;DHT22;64605;48.296;16.416;2023-03-01T01:17:00;2.40;57.80
75927;DHT22;64605;48.296;16.416;2023-03-01T01:19:26;2.40;57.80
75927;DHT22;64605;48.296;16.416;2023-03-01T01:21:52;2.40;57.90
75927;DHT22;64605;48.296;16.416;2023-03-01T01:24:19;2.40;58.00
75927;DHT22;64605;48.296;16.416;2023-03-01T01:26:45;2.40;58.10
75927;DHT22;64605;48.296;16.416;2023-03-01T01:29:11;2.40;58.30
75927;DHT22;64605;48.296;16.416;2023-03-01T01:31:38;2.40;58.40
75927;DHT22;64605;48.296;16.416;2023-03-01T01:34:05;2.40;58.10
75927;DHT22;64605;48.296;16.416;2023-03-01T01:36:32;2.40;57.70
75927;DHT22;64605;48.296;16.416;2023-03-01T01:38:57;2.50;57.60
75927;DHT22;64605;48.296;16.416;2023-03-01T01:41:25;2.50;57.70
75927;DHT22;64605;48.296;16.416;2023-03-01T01:44:15;2.50;57.90
75927;DHT22;64605;48.296;16.416;2023-03-01T01:46:56;2.60;57.60
75927;DHT22;64605;48.296;16.416;2023-03-01T01:52:09;2.80;57.60
75927;DHT22;64605;48.296;16.416;2023-03-01T01:57:09;3.00;57.70
75927;DHT22;64605;48.296;16.416;2023-03-01T01:59:37;3.10;57.40
75927;DHT22;64605;48.296;16.416;2023-03-01T02:02:04;3.20;56.80
75927;DHT22;64605;48.296;16.416;2023-03-01T02:04:31;3.30;57.50
75927;DHT22;64605;48.296;16.416;2023-03-01T02:07:21;3.40;56.60
75927;DHT22;64605;48.296;16.416;2023-03-01T02:09:50;3.50;56.50
75927;DHT22;64605;48.296;16.416;2023-03-01T02:12:19;3.60;56.40
75927;DHT22;64605;48.296;16.416;2023-03-01T02:14:46;3.70;56.00
75927;DHT22;64605;48.296;16.416;2023-03-01T02:17:12;3.70;55.60
75927;DHT22;64605;48.296;16.416;2023-03-01T02:22:29;3.80;55.30
75927;DHT22;64605;48.296;16.416;2023-03-01T02:25:41;3.90;55.10
75927;DHT22;64605;48.296;16.416;2023-03-01T02:30:39;4.00;55.40
75927;DHT22;64605;48.296;16.416;2023-03-01T02:33:25;4.00;55.10
75927;DHT22;64605;48.296;16.416;2023-03-01T02:35:53;4.10;54.90
75927;DHT22;64605;48.296;16.416;2023-03-01T02:38:20;4.10;54.80
75927;DHT22;64605;48.296;16.416;2023-03-01T02:40:49;4.20;54.90
75927;DHT22;64605;48.296;16.416;2023-03-01T02:43:16;4.20;54.70
75927;DHT22;64605;48.296;16.416;2023-03-01T02:45:50;4.20;54.80
75927;DHT22;64605;48.296;16.416;2023-03-01T02:48:16;4.20;54.70
75927;DHT22;64605;48.296;16.416;2023-03-01T02:53:39;4.30;54.60
75927;DHT22;64605;48.296;16.416;2023-03-01T02:56:08;4.30;54.60
75927;DHT22;64605;48.296;16.416;2023-03-01T02:58:39;4.40;55.50
75927;DHT22;64605;48.296;16.416;2023-03-01T03:01:11;4.40;54.10
75927;DHT22;64605;48.296;16.416;2023-03-01T03:03:38;4.50;54.30
75927;DHT22;64605;48.296;16.416;2023-03-01T03:06:04;4.50;54.20
75927;DHT22;64605;48.296;16.416;2023-03-01T03:08:30;4.60;53.90
75927;DHT22;64605;48.296;16.416;2023-03-01T03:10:55;4.60;53.60
75927;DHT22;64605;48.296;16.416;2023-03-01T03:13:21;4.70;53.50
75927;DHT22;64605;48.296;16.416;2023-03-01T03:15:47;4.70;53.30
75927;DHT22;64605;48.296;16.416;2023-03-01T03:18:16;4.80;53.40
75927;DHT22;64605;48.296;16.416;2023-03-01T03:20:43;4.80;53.10
75927;DHT22;64605;48.296;16.416;2023-03-01T03:23:09;4.80;53.10
75927;DHT22;64605;48.296;16.416;2023-03-01T03:25:34;4.90;53.20
75927;DHT22;64605;48.296;16.416;2023-03-01T03:28:04;4.90;53.40
75927;DHT22;64605;48.296;16.416;2023-03-01T03:30:36;5.00;53.50
75927;DHT22;64605;48.296;16.416;2023-03-01T03:33:05;5.00;53.40
75927;DHT22;64605;48.296;16.416;2023-03-01T03:35:33;5.10;53.30
75927;DHT22;64605;48.296;16.416;2023-03-01T03:38:03;5.10;53.30
75927;DHT22;64605;48.296;16.416;2023-03-01T03:40:36;5.10;53.00
75927;DHT22;64605;48.296;16.416;2023-03-01T03:43:08;5.10;52.90
75927;DHT22;64605;48.296;16.416;2023-03-01T03:45:34;5.20;52.90
75927;DHT22;64605;48.296;16.416;2023-03-01T03:48:01;5.20;53.30
75927;DHT22;64605;48.296;16.416;2023-03-01T03:50:27;5.30;53.20
75927;DHT22;64605;48.296;16.416;2023-03-01T03:52:53;5.30;53.10
75927;DHT22;64605;48.296;16.416;2023-03-01T03:55:19;5.40;53.10
75927;DHT22;64605;48.296;16.416;2023-03-01T03:57:46;5.40;53.00
75927;DHT22;64605;48.296;16.416;2023-03-01T04:00:19;5.40;52.70
75927;DHT22;64605;48.296;16.416;2023-03-01T04:02:45;5.40;52.80
75927;DHT22;64605;48.296;16.416;2023-03-01T04:05:13;5.50;52.60
75927;DHT22;64605;48.296;16.416;2023-03-01T04:07:40;5.50;52.60
75927;DHT22;64605;48.296;16.416;2023-03-01T04:10:11;5.50;52.60
75927;DHT22;64605;48.296;16.416;2023-03-01T04:12:37;5.50;52.90
75927;DHT22;64605;48.296;16.416;2023-03-01T04:15:06;5.50;52.60
75927;DHT22;64605;48.296;16.416;2023-03-01T04:17:40;5.50;52.70
75927;DHT22;64605;48.296;16.416;2023-03-01T04:20:11;5.50;52.70
75927;DHT22;64605;48.296;16.416;2023-03-01T04:22:38;5.50;52.70
75927;DHT22;64605;48.296;16.416;2023-03-01T04:25:04;5.50;52.90
75927;DHT22;64605;48.296;16.416;2023-03-01T04:27:35;5.50;52.90
75927;DHT22;64605;48.296;16.416;2023-03-01T04:30:02;5.50;52.80
75927;DHT22;64605;48.296;16.416;2023-03-01T04:32:28;5.50;52.80
75927;DHT22;64605;48.296;16.416;2023-03-01T04:34:54;5.50;52.90
75927;DHT22;64605;48.296;16.416;2023-03-01T04:37:19;5.50;53.00
75927;DHT22;64605;48.296;16.416;2023-03-01T04:39:45;5.50;53.00
75927;DHT22;64605;48.296;16.416;2023-03-01T04:42:11;5.50;53.20
75927;DHT22;64605;48.296;16.416;2023-03-01T04:44:37;5.50;53.40
75927;DHT22;64605;48.296;16.416;2023-03-01T04:47:03;5.60;53.40
75927;DHT22;64605;48.296;16.416;2023-03-01T04:49:28;5.60;53.40
75927;DHT22;64605;48.296;16.416;2023-03-01T04:51:54;5.60;53.20
75927;DHT22;64605;48.296;16.416;2023-03-01T04:54:20;5.60;53.30
75927;DHT22;64605;48.296;16.416;2023-03-01T04:56:46;5.60;53.30
75927;DHT22;64605;48.296;16.416;2023-03-01T04:59:11;5.60;53.40
75927;DHT22;64605;48.296;16.416;2023-03-01T05:01:38;5.60;53.30
75927;DHT22;64605;48.296;16.416;2023-03-01T05:04:04;5.60;53.40
75927;DHT22;64605;48.296;16.416;2023-03-01T05:06:31;5.60;53.30
75927;DHT22;64605;48.296;16.416;2023-03-01T05:08:56;5.60;53.20
75927;DHT22;64605;48.296;16.416;2023-03-01T05:11:22;5.60;53.10
75927;DHT22;64605;48.296;16.416;2023-03-01T05:13:48;5.60;53.30
75927;DHT22;64605;48.296;16.416;2023-03-01T05:16:15;5.60;53.40
75927;DHT22;64605;48.296;16.416;2023-03-01T05:18:42;5.60;53.30
75927;DHT22;64605;48.296;16.416;2023-03-01T05:21:14;5.60;53.40
75927;DHT22;64605;48.296;16.416;2023-03-01T05:23:42;5.60;53.30
75927;DHT22;64605;48.296;16.416;2023-03-01T05:26:08;5.60;53.20
75927;DHT22;64605;48.296;16.416;2023-03-01T05:28:34;5.60;53.40
75927;DHT22;64605;48.296;16.416;2023-03-01T05:31:00;5.60;53.20
75927;DHT22;64605;48.296;16.416;2023-03-01T05:33:27;5.60;53.20
75927;DHT22;64605;48.296;16.416;2023-03-01T05:35:53;5.70;53.10
75927;DHT22;64605;48.296;16.416;2023-03-01T05:38:20;5.60;53.10
75927;DHT22;64605;48.296;16.416;2023-03-01T05:40:47;5.60;53.00
75927;DHT22;64605;48.296;16.416;2023-03-01T05:43:15;5.60;53.00
75927;DHT22;64605;48.296;16.416;2023-03-01T05:45:41;5.60;52.90
75927;DHT22;64605;48.296;16.416;2023-03-01T05:48:08;5.60;53.00
75927;DHT22;64605;48.296;16.416;2023-03-01T05:50:37;5.60;52.80
75927;DHT22;64605;48.296;16.416;2023-03-01T05:53:06;5.70;52.80
75927;DHT22;64605;48.296;16.416;2023-03-01T05:55:33;5.70;52.60
75927;DHT22;64605;48.296;16.416;2023-03-01T05:58:01;5.70;52.60
75927;DHT22;64605;48.296;16.416;2023-03-01T06:00:28;5.70;52.60
75927;DHT22;64605;48.296;16.416;2023-03-01T06:02:54;5.80;52.50
75927;DHT22;64605;48.296;16.416;2023-03-01T06:05:20;5.80;52.40
75927;DHT22;64605;48.296;16.416;2023-03-01T06:07:46;5.90;52.50
75927;DHT22;64605;48.296;16.416;2023-03-01T06:10:12;5.90;52.20
75927;DHT22;64605;48.296;16.416;2023-03-01T06:12:40;6.00;52.10
75927;DHT22;64605;48.296;16.416;2023-03-01T06:15:07;6.10;51.90
75927;DHT22;64605;48.296;16.416;2023-03-01T06:17:36;6.20;51.70
75927;DHT22;64605;48.296;16.416;2023-03-01T06:20:08;6.30;51.20
75927;DHT22;64605;48.296;16.416;2023-03-01T06:22:34;6.30;51.10
75927;DHT22;64605;48.296;16.416;2023-03-01T06:25:00;6.30;51.10
75927;DHT22;64605;48.296;16.416;2023-03-01T06:27:26;6.40;51.20
75927;DHT22;64605;48.296;16.416;2023-03-01T06:29:51;6.40;51.10
75927;DHT22;64605;48.296;16.416;2023-03-01T06:32:17;6.40;51.10
75927;DHT22;64605;48.296;16.416;2023-03-01T06:34:43;6.50;51.10
75927;DHT22;64605;48.296;16.416;2023-03-01T06:37:08;6.60;50.90
75927;DHT22;64605;48.296;16.416;2023-03-01T06:39:34;6.50;50.40
75927;DHT22;64605;48.296;16.416;2023-03-01T06:42:00;6.60;50.80
75927;DHT22;64605;48.296;16.416;2023-03-01T06:44:25;6.60;50.70
75927;DHT22;64605;48.296;16.416;2023-03-01T06:46:51;6.70;50.60
75927;DHT22;64605;48.296;16.416;2023-03-01T06:49:17;6.70;50.60
75927;DHT22;64605;48.296;16.416;2023-03-01T06:51:44;6.80;50.30
75927;DHT22;64605;48.296;16.416;2023-03-01T06:54:10;6.80;50.00
75927;DHT22;64605;48.296;16.416;2023-03-01T06:56:36;6.90;49.90
75927;DHT22;64605;48.296;16.416;2023-03-01T06:59:02;6.90;49.70
75927;DHT22;64605;48.296;16.416;2023-03-01T07:01:29;7.00;49.50
75927;DHT22;64605;48.296;16.416;2023-03-01T07:03:54;7.10;49.40
75927;DHT22;64605;48.296;16.416;2023-03-01T07:06:21;7.10;49.40
75927;DHT22;64605;48.296;16.416;2023-03-01T07:08:46;7.20;49.00
75927;DHT22;64605;48.296;16.416;2023-03-01T07:11:12;7.20;48.90
75927;DHT22;64605;48.296;16.416;2023-03-01T07:13:38;7.30;48.70
75927;DHT22;64605;48.296;16.416;2023-03-01T07:16:04;7.40;48.50
75927;DHT22;64605;48.296;16.416;2023-03-01T07:18:29;7.40;48.40
75927;DHT22;64605;48.296;16.416;2023-03-01T07:20:55;7.50;48.20
75927;DHT22;64605;48.296;16.416;2023-03-01T07:23:21;7.60;48.10
75927;DHT22;64605;48.296;16.416;2023-03-01T07:25:53;7.60;47.90
75927;DHT22;64605;48.296;16.416;2023-03-01T07:28:20;7.70;48.00
75927;DHT22;64605;48.296;16.416;2023-03-01T07:30:46;7.70;48.20
75927;DHT22;64605;48.296;16.416;2023-03-01T07:33:11;7.80;48.10
75927;DHT22;64605;48.296;16.416;2023-03-01T07:35:37;7.80;48.00
75927;DHT22;64605;48.296;16.416;2023-03-01T07:38:02;7.80;47.40
75927;DHT22;64605;48.296;16.416;2023-03-01T07:40:28;7.90;47.40
75927;DHT22;64605;48.296;16.416;2023-03-01T07:42:57;8.00;47.20
75927;DHT22;64605;48.296;16.416;2023-03-01T07:45:27;8.20;46.80
75927;DHT22;64605;48.296;16.416;2023-03-01T07:47:53;8.30;46.60
75927;DHT22;64605;48.296;16.416;2023-03-01T07:50:20;8.50;46.00
75927;DHT22;64605;48.296;16.416;2023-03-01T07:52:47;8.60;45.70
75927;DHT22;64605;48.296;16.416;2023-03-01T07:55:13;8.70;45.40
75927;DHT22;64605;48.296;16.416;2023-03-01T07:57:38;8.80;44.90
75927;DHT22;64605;48.296;16.416;2023-03-01T08:00:05;9.00;44.90
75927;DHT22;64605;48.296;16.416;2023-03-01T08:02:31;9.00;44.50
75927;DHT22;64605;48.296;16.416;2023-03-01T08:04:57;9.20;44.30
75927;DHT22;64605;48.296;16.416;2023-03-01T08:07:23;9.40;44.20
75927;DHT22;64605;48.296;16.416;2023-03-01T08:09:48;9.70;43.70
75927;DHT22;64605;48.296;16.416;2023-03-01T08:12:14;9.90;43.00
75927;DHT22;64605;48.296;16.416;2023-03-01T08:14:42;10.20;42.70
75927;DHT22;64605;48.296;16.416;2023-03-01T08:17:07;10.40;42.50
75927;DHT22;64605;48.296;16.416;2023-03-01T08:19:33;10.60;42.30
75927;DHT22;64605;48.296;16.416;2023-03-01T08:22:03;10.90;41.40
75927;DHT22;64605;48.296;16.416;2023-03-01T08:24:28;11.10;40.80
75927;DHT22;64605;48.296;16.416;2023-03-01T08:26:54;11.30;40.30
75927;DHT22;64605;48.296;16.416;2023-03-01T08:29:21;11.40;39.00
75927;DHT22;64605;48.296;16.416;2023-03-01T08:31:47;11.80;39.40
75927;DHT22;64605;48.296;16.416;2023-03-01T08:34:14;12.10;38.50
75927;DHT22;64605;48.296;16.416;2023-03-01T08:36:42;12.30;37.70
75927;DHT22;64605;48.296;16.416;2023-03-01T08:39:10;12.40;37.20
75927;DHT22;64605;48.296;16.416;2023-03-01T08:41:36;12.60;36.80
75927;DHT22;64605;48.296;16.416;2023-03-01T08:44:03;12.70;36.40
75927;DHT22;64605;48.296;16.416;2023-03-01T08:46:33;12.90;35.50
75927;DHT22;64605;48.296;16.416;2023-03-01T08:48:59;13.20;35.90
75927;DHT22;64605;48.296;16.416;2023-03-01T08:51:26;13.60;35.40
75927;DHT22;64605;48.296;16.416;2023-03-01T08:53:52;14.00;36.00
75927;DHT22;64605;48.296;16.416;2023-03-01T08:56:18;14.40;34.00
75927;DHT22;64605;48.296;16.416;2023-03-01T08:58:46;14.40;32.90
75927;DHT22;64605;48.296;16.416;2023-03-01T09:01:13;14.60;32.90
75927;DHT22;64605;48.296;16.416;2023-03-01T09:03:40;15.40;33.00
75927;DHT22;64605;48.296;16.416;2023-03-01T09:06:07;16.00;30.90
75927;DHT22;64605;48.296;16.416;2023-03-01T09:08:41;16.10;29.40
75927;DHT22;64605;48.296;16.416;2023-03-01T09:11:08;16.00;29.60
75927;DHT22;64605;48.296;16.416;2023-03-01T09:13:35;15.90;29.60
75927;DHT22;64605;48.296;16.416;2023-03-01T09:16:03;15.90;29.40
75927;DHT22;64605;48.296;16.416;2023-03-01T09:18:29;15.90;29.70
75927;DHT22;64605;48.296;16.416;2023-03-01T09:21:09;15.80;29.30
75927;DHT22;64605;48.296;16.416;2023-03-01T09:23:36;15.60;29.50
75927;DHT22;64605;48.296;16.416;2023-03-01T09:26:04;15.70;30.30
75927;DHT22;64605;48.296;16.416;2023-03-01T09:28:30;16.00;30.40
75927;DHT22;64605;48.296;16.416;2023-03-01T09:31:00;16.20;29.20
75927;DHT22;64605;48.296;16.416;2023-03-01T09:33:27;16.20;29.60
75927;DHT22;64605;48.296;16.416;2023-03-01T09:35:57;16.30;29.40
75927;DHT22;64605;48.296;16.416;2023-03-01T09:38:23;16.40;28.40
75927;DHT22;64605;48.296;16.416;2023-03-01T09:40:49;16.60;28.30
75927;DHT22;64605;48.296;16.416;2023-03-01T09:45:59;17.20;28.30
75927;DHT22;64605;48.296;16.416;2023-03-01T09:48:27;17.40;28.00
75927;DHT22;64605;48.296;16.416;2023-03-01T09:50:58;17.50;27.60
75927;DHT22;64605;48.296;16.416;2023-03-01T09:53:32;17.10;27.00
75927;DHT22;64605;48.296;16.416;2023-03-01T10:04:39;18.10;26.80
75927;DHT22;64605;48.296;16.416;2023-03-01T10:09:40;17.20;26.80
75927;DHT22;64605;48.296;16.416;2023-03-01T10:12:27;16.80;27.50
75927;DHT22;64605;48.296;16.416;2023-03-01T10:15:17;16.50;27.90
75927;DHT22;64605;48.296;16.416;2023-03-01T10:20:28;15.80;28.80
75927;DHT22;64605;48.296;16.416;2023-03-01T10:22:55;15.70;29.20
75927;DHT22;64605;48.296;16.416;2023-03-01T10:27:53;16.10;29.50
75927;DHT22;64605;48.296;16.416;2023-03-01T10:30:38;17.00;28.90
75927;DHT22;64605;48.296;16.416;2023-03-01T10:33:17;18.60;27.90
75927;DHT22;64605;48.296;16.416;2023-03-01T10:35:45;19.80;26.50
75927;DHT22;64605;48.296;16.416;2023-03-01T10:38:15;20.70;25.80
75927;DHT22;64605;48.296;16.416;2023-03-01T10:41:05;21.30;24.70
75927;DHT22;64605;48.296;16.416;2023-03-01T10:43:47;21.20;24.50
75927;DHT22;64605;48.296;16.416;2023-03-01T10:51:32;20.90;24.50
75927;DHT22;64605;48.296;16.416;2023-03-01T10:53:57;21.30;23.50
75927;DHT22;64605;48.296;16.416;2023-03-01T10:56:23;22.00;22.90
75927;DHT22;64605;48.296;16.416;2023-03-01T11:01:33;27.70;20.00
75927;DHT22;64605;48.296;16.416;2023-03-01T11:04:18;30.10;17.70
75927;DHT22;64605;48.296;16.416;2023-03-01T11:06:43;31.50;16.50
75927;DHT22;64605;48.296;16.416;2023-03-01T11:09:23;33.10;15.70
75927;DHT22;64605;48.296;16.416;2023-03-01T11:11:57;33.80;14.10
75927;DHT22;64605;48.296;16.416;2023-03-01T11:14:28;32.90;13.40
75927;DHT22;64605;48.296;16.416;2023-03-01T11:17:27;30.40;14.50
75927;DHT22;64605;48.296;16.416;2023-03-01T11:22:52;27.20;16.50
75927;DHT22;64605;48.296;16.416;2023-03-01T11:25:23;27.40;16.80
75927;DHT22;64605;48.296;16.416;2023-03-01T11:27:49;27.70;16.20
75927;DHT22;64605;48.296;16.416;2023-03-01T11:31:03;26.00;16.60
75927;DHT22;64605;48.296;16.416;2023-03-01T11:33:43;24.00;18.40
75927;DHT22;64605;48.296;16.416;2023-03-01T11:41:49;19.60;22.60
75927;DHT22;64605;48.296;16.416;2023-03-01T11:44:23;18.90;23.40
75927;DHT22;64605;48.296;16.416;2023-03-01T11:50:48;17.70;25.50
75927;DHT22;64605;48.296;16.416;2023-03-01T11:58:55;17.20;26.00
75927;DHT22;64605;48.296;16.416;2023-03-01T12:03:59;17.10;26.40
75927;DHT22;64605;48.296;16.416;2023-03-01T12:06:43;16.90;26.40
75927;DHT22;64605;48.296;16.416;2023-03-01T12:09:42;16.50;27.10
75927;DHT22;64605;48.296;16.416;2023-03-01T12:15:28;16.30;27.80
75927;DHT22;64605;48.296;16.416;2023-03-01T12:18:54;16.20;27.70
75927;DHT22;64605;48.296;16.416;2023-03-01T12:23:39;15.60;28.30
75927;DHT22;64605;48.296;16.416;2023-03-01T12:26:33;15.50;28.60
75927;DHT22;64605;48.296;16.416;2023-03-01T12:50:52;14.90;30.30
75927;DHT22;64605;48.296;16.416;2023-03-01T12:53:57;15.10;30.50
75927;DHT22;64605;48.296;16.416;2023-03-01T12:56:19;15.30;30.00
75927;DHT22;64605;48.296;16.416;2023-03-01T12:58:56;15.20;30.00
75927;DHT22;64605;48.296;16.416;2023-03-01T13:04:28;14.80;30.60
75927;DHT22;64605;48.296;16.416;2023-03-01T13:09:44;14.40;31.50
75927;DHT22;64605;48.296;16.416;2023-03-01T13:17:48;14.60;31.90
75927;DHT22;64605;48.296;16.416;2023-03-01T13:20:18;14.80;31.70
75927;DHT22;64605;48.296;16.416;2023-03-01T13:22:46;14.90;31.40
75927;DHT22;64605;48.296;16.416;2023-03-01T13:25:19;14.90;31.40
75927;DHT22;64605;48.296;16.416;2023-03-01T13:27:46;14.80;31.60
75927;DHT22;64605;48.296;16.416;2023-03-01T13:33:41;14.40;32.30
75927;DHT22;64605;48.296;16.416;2023-03-01T13:36:08;14.20;33.00
75927;DHT22;64605;48.296;16.416;2023-03-01T13:38:45;14.20;33.10
75927;DHT22;64605;48.296;16.416;2023-03-01T13:41:16;14.20;33.00
75927;DHT22;64605;48.296;16.416;2023-03-01T13:43:44;14.30;33.20
75927;DHT22;64605;48.296;16.416;2023-03-01T13:46:14;14.40;32.90
75927;DHT22;64605;48.296;16.416;2023-03-01T13:48:43;14.30;33.00
75927;DHT22;64605;48.296;16.416;2023-03-01T13:51:10;14.20;32.90
75927;DHT22;64605;48.296;16.416;2023-03-01T13:53:44;14.10;33.30
75927;DHT22;64605;48.296;16.416;2023-03-01T13:56:16;14.10;33.70
75927;DHT22;64605;48.296;16.416;2023-03-01T13:59:01;13.90;33.90
75927;DHT22;64605;48.296;16.416;2023-03-01T14:01:36;13.60;34.40
75927;DHT22;64605;48.296;16.416;2023-03-01T14:04:03;13.30;34.80
75927;DHT22;64605;48.296;16.416;2023-03-01T14:06:42;13.20;35.00
75927;DHT22;64605;48.296;16.416;2023-03-01T14:09:24;13.00;35.50
75927;DHT22;64605;48.296;16.416;2023-03-01T14:12:02;12.90;35.90
75927;DHT22;64605;48.296;16.416;2023-03-01T14:20:26;12.70;36.80
75927;DHT22;64605;48.296;16.416;2023-03-01T14:22:55;12.70;36.70
75927;DHT22;64605;48.296;16.416;2023-03-01T14:25:31;12.80;36.80
75927;DHT22;64605;48.296;16.416;2023-03-01T14:28:19;12.70;36.90
75927;DHT22;64605;48.296;16.416;2023-03-01T14:30:50;12.70;36.40
75927;DHT22;64605;48.296;16.416;2023-03-01T14:33:34;12.60;36.50
75927;DHT22;64605;48.296;16.416;2023-03-01T14:36:12;12.50;36.80
75927;DHT22;64605;48.296;16.416;2023-03-01T14:38:42;12.40;36.90
75927;DHT22;64605;48.296;16.416;2023-03-01T14:41:21;12.30;37.00
75927;DHT22;64605;48.296;16.416;2023-03-01T14:43:58;12.30;37.30
75927;DHT22;64605;48.296;16.416;2023-03-01T14:46:39;12.20;37.90
75927;DHT22;64605;48.296;16.416;2023-03-01T14:49:20;12.00;37.80
75927;DHT22;64605;48.296;16.416;2023-03-01T14:51:53;12.00;38.20
75927;DHT22;64605;48.296;16.416;2023-03-01T14:59:42;11.80;38.60
75927;DHT22;64605;48.296;16.416;2023-03-01T15:02:13;11.70;38.70
75927;DHT22;64605;48.296;16.416;2023-03-01T15:04:52;11.60;38.90
75927;DHT22;64605;48.296;16.416;2023-03-01T15:07:19;11.60;39.00
75927;DHT22;64605;48.296;16.416;2023-03-01T15:09:45;11.70;38.90
75927;DHT22;64605;48.296;16.416;2023-03-01T15:12:35;11.70;38.80
75927;DHT22;64605;48.296;16.416;2023-03-01T15:15:01;11.70;39.10
75927;DHT22;64605;48.296;16.416;2023-03-01T15:17:33;11.70;39.00
75927;DHT22;64605;48.296;16.416;2023-03-01T15:20:13;11.70;40.10
75927;DHT22;64605;48.296;16.416;2023-03-01T15:22:44;11.70;39.10
75927;DHT22;64605;48.296;16.416;2023-03-01T15:25:18;11.60;39.20
75927;DHT22;64605;48.296;16.416;2023-03-01T15:27:49;11.60;39.40
75927;DHT22;64605;48.296;16.416;2023-03-01T15:30:35;11.50;39.40
75927;DHT22;64605;48.296;16.416;2023-03-01T15:35:53;11.50;39.50
75927;DHT22;64605;48.296;16.416;2023-03-01T15:38:29;11.40;39.60
75927;DHT22;64605;48.296;16.416;2023-03-01T15:40:57;11.40;39.90
75927;DHT22;64605;48.296;16.416;2023-03-01T15:46:04;11.20;40.30
75927;DHT22;64605;48.296;16.416;2023-03-01T15:48:30;11.10;40.40
75927;DHT22;64605;48.296;16.416;2023-03-01T15:50:58;11.00;40.50
75927;DHT22;64605;48.296;16.416;2023-03-01T15:53:27;11.00;40.70
75927;DHT22;64605;48.296;16.416;2023-03-01T15:55:53;10.90;40.80
75927;DHT22;64605;48.296;16.416;2023-03-01T15:58:21;10.90;40.80
75927;DHT22;64605;48.296;16.416;2023-03-01T16:00:48;10.90;41.00
75927;DHT22;64605;48.296;16.416;2023-03-01T16:03:16;10.80;41.10
75927;DHT22;64605;48.296;16.416;2023-03-01T16:05:48;10.80;41.20
75927;DHT22;64605;48.296;16.416;2023-03-01T16:08:14;10.80;41.10
75927;DHT22;64605;48.296;16.416;2023-03-01T16:10:41;10.80;41.20
75927;DHT22;64605;48.296;16.416;2023-03-01T16:13:12;10.80;41.50
75927;DHT22;64605;48.296;16.416;2023-03-01T16:15:38;10.80;41.30
75927;DHT22;64605;48.296;16.416;2023-03-01T16:18:05;10.80;41.40
75927;DHT22;64605;48.296;16.416;2023-03-01T16:20:32;10.80;41.50
75927;DHT22;64605;48.296;16.416;2023-03-01T16:22:59;10.80;42.10
75927;DHT22;64605;48.296;16.416;2023-03-01T16:25:25;10.70;42.30
75927;DHT22;64605;48.296;16.416;2023-03-01T16:27:51;10.60;42.50
75927;DHT22;64605;48.296;16.416;2023-03-01T16:30:20;10.50;42.80
75927;DHT22;64605;48.296;16.416;2023-03-01T16:32:47;10.40;43.00
75927;DHT22;64605;48.296;16.416;2023-03-01T16:35:16;10.20;43.30
75927;DHT22;64605;48.296;16.416;2023-03-01T16:37:42;10.10;43.40
75927;DHT22;64605;48.296;16.416;2023-03-01T16:42:48;9.90;44.40
75927;DHT22;64605;48.296;16.416;2023-03-01T16:45:15;9.70;45.60
75927;DHT22;64605;48.296;16.416;2023-03-01T16:47:41;9.70;44.90
75927;DHT22;64605;48.296;16.416;2023-03-01T16:50:07;9.50;45.20
75927;DHT22;64605;48.296;16.416;2023-03-01T16:52:33;9.50;45.50
75927;DHT22;64605;48.296;16.416;2023-03-01T16:54:59;9.40;45.80
75927;DHT22;64605;48.296;16.416;2023-03-01T16:57:25;9.30;46.20
75927;DHT22;64605;48.296;16.416;2023-03-01T16:59:53;9.10;46.40
75927;DHT22;64605;48.296;16.416;2023-03-01T17:02:19;9.10;46.60
75927;DHT22;64605;48.296;16.416;2023-03-01T17:04:45;9.00;46.60
75927;DHT22;64605;48.296;16.416;2023-03-01T17:07:16;8.90;47.10
75927;DHT22;64605;48.296;16.416;2023-03-01T17:09:42;8.80;47.40
75927;DHT22;64605;48.296;16.416;2023-03-01T17:12:07;8.80;47.70
75927;DHT22;64605;48.296;16.416;2023-03-01T17:14:33;8.70;48.00
75927;DHT22;64605;48.296;16.416;2023-03-01T17:16:59;8.70;48.20
75927;DHT22;64605;48.296;16.416;2023-03-01T17:19:28;8.60;48.30
75927;DHT22;64605;48.296;16.416;2023-03-01T17:21:54;8.50;48.50
75927;DHT22;64605;48.296;16.416;2023-03-01T17:24:19;8.40;48.60
75927;DHT22;64605;48.296;16.416;2023-03-01T17:26:45;8.30;48.90
75927;DHT22;64605;48.296;16.416;2023-03-01T17:29:11;8.30;49.20
75927;DHT22;64605;48.296;16.416;2023-03-01T17:31:38;8.20;49.30
75927;DHT22;64605;48.296;16.416;2023-03-01T17:34:04;8.10;49.50
75927;DHT22;64605;48.296;16.416;2023-03-01T17:36:29;8.00;49.80
75927;DHT22;64605;48.296;16.416;2023-03-01T17:38:55;7.90;50.10
75927;DHT22;64605;48.296;16.416;2023-03-01T17:41:21;7.90;50.40